createdAt,value
2023-03-15T00:00:24.891Z,99073.44
2023-03-15T00:03:27.708Z,99075.56
2023-03-15T00:06:34.728Z,99076.72
2023-03-15T00:09:37.320Z,99089.16
2023-03-15T00:12:42.752Z,99084.34
2023-03-15T00:15:58.660Z,99103.25
2023-03-15T00:19:01.299Z,99107.69
2023-03-15T00:22:04.098Z,99094.75
2023-03-15T00:25:07.782Z,99122.44
2023-03-15T00:28:10.564Z,99107.19
2023-03-15T00:31:16.587Z,99105.03
2023-03-15T00:34:24.628Z,99101.72
2023-03-15T00:37:28.489Z,99087.28
2023-03-15T00:40:37.028Z,99092.75
2023-03-15T00:43:39.879Z,99105.22
2023-03-15T00:46:42.485Z,99086.59
2023-03-15T00:49:45.655Z,99078.13
2023-03-15T00:52:48.665Z,99074.31
2023-03-15T00:55:51.484Z,99075.13
2023-03-15T00:58:54.307Z,99074.44
2023-03-15T01:01:58.234Z,99073.16
2023-03-15T01:05:01.795Z,99079.09
2023-03-15T01:08:04.825Z,99080.06
2023-03-15T01:11:11.455Z,99071.25
2023-03-15T01:14:14.200Z,99082.69
2023-03-15T01:17:16.852Z,99086.84
2023-03-15T01:20:19.638Z,99078.03
2023-03-15T01:23:22.320Z,99071.19
2023-03-15T01:26:24.936Z,99079.97
2023-03-15T01:29:27.640Z,99076.34
2023-03-15T01:32:31.039Z,99070.66
2023-03-15T01:35:33.643Z,99080.63
2023-03-15T01:38:36.566Z,99090.53
2023-03-15T01:41:39.444Z,99085.22
2023-03-15T01:44:55.553Z,99084.69
2023-03-15T01:47:58.119Z,99074.72
2023-03-15T01:51:11.624Z,99065.81
2023-03-15T01:54:29.184Z,99074.25
2023-03-15T01:57:49.877Z,99061.25
2023-03-15T02:00:53.476Z,99071.75
2023-03-15T02:04:03.368Z,99076.88
2023-03-15T02:07:10.375Z,99068.56
2023-03-15T02:10:36.281Z,99069.41
2023-03-15T02:13:40.464Z,99061.25
2023-03-15T02:16:45.553Z,99070.19
2023-03-15T02:20:17.997Z,99068.84
2023-03-15T02:23:22.998Z,99069.63
2023-03-15T02:26:39.981Z,99073.25
2023-03-15T02:29:42.570Z,99071.88
2023-03-15T02:32:46.420Z,99070.72
2023-03-15T02:35:49.136Z,99077.34
2023-03-15T02:38:53.482Z,99087.94
2023-03-15T02:41:58.715Z,99084.31
2023-03-15T02:45:04.338Z,99090.56
2023-03-15T02:48:08.809Z,99103.94
2023-03-15T02:51:22.280Z,99098.13
2023-03-15T02:54:26.496Z,99088.38
2023-03-15T02:57:29.564Z,99104.09
2023-03-15T03:00:33.993Z,99113.69
2023-03-15T03:03:36.493Z,99105.38
2023-03-15T03:06:39.305Z,99107.56
2023-03-15T03:09:42.463Z,99102.69
2023-03-15T03:12:46.794Z,99101.53
2023-03-15T03:15:58.541Z,99110.97
2023-03-15T03:19:04.205Z,99105.47
2023-03-15T03:22:08.571Z,99115.88
2023-03-15T03:25:12.201Z,99100.31
2023-03-15T03:28:15.144Z,99091.47
2023-03-15T03:31:21.223Z,99105.97
2023-03-15T03:34:25.286Z,99096.66
2023-03-15T03:37:27.970Z,99100.38
2023-03-15T03:40:39.778Z,99102.13
2023-03-15T03:43:43.369Z,99098.31
2023-03-15T03:46:46.231Z,99101.88
2023-03-15T03:49:50.218Z,99104.53
2023-03-15T03:52:53.146Z,99100.84
2023-03-15T03:56:00.111Z,99098.28
2023-03-15T03:59:02.851Z,99091.69
2023-03-15T04:02:18.955Z,99087.06
2023-03-15T04:05:32.061Z,99087.38
2023-03-15T04:08:34.986Z,99092.13
2023-03-15T04:11:42.657Z,99095.25
2023-03-15T04:14:45.946Z,99088.75
2023-03-15T04:17:55.933Z,99101.38
2023-03-15T04:21:02.571Z,99095.53
2023-03-15T04:24:06.147Z,99106.88
2023-03-15T04:27:26.991Z,99106.88
2023-03-15T04:30:44.125Z,99109.50
2023-03-15T04:34:10.665Z,99117.31
2023-03-15T04:37:35.987Z,99131.91
2023-03-15T04:40:57.083Z,99128.34
2023-03-15T04:44:26.777Z,99132.13
2023-03-15T04:47:38.257Z,99125.63
2023-03-15T04:51:01.531Z,99140.22
2023-03-15T04:54:18.695Z,99144.97
2023-03-15T04:57:31.294Z,99151.25
2023-03-15T05:00:53.696Z,99149.75
2023-03-15T05:04:04.119Z,99152.91
2023-03-15T05:07:42.096Z,99166.84
2023-03-15T05:10:59.765Z,99168.44
2023-03-15T05:14:15.025Z,99164.22
2023-03-15T05:17:33.717Z,99170.25
2023-03-15T05:21:01.756Z,99167.06
2023-03-15T05:24:11.991Z,99169.28
2023-03-15T05:27:35.488Z,99166.94
2023-03-15T05:31:02.671Z,99168.22
2023-03-15T05:34:29.181Z,99169.94
2023-03-15T05:37:38.279Z,99158.53
2023-03-15T05:41:02.390Z,99151.66
2023-03-15T05:44:23.613Z,99158.06
2023-03-15T05:47:45.914Z,99153.81
2023-03-15T05:51:16.807Z,99153.53
2023-03-15T05:54:52.088Z,99161.06
2023-03-15T05:58:10.204Z,99161.34
2023-03-15T06:01:39.009Z,99174.44
2023-03-15T06:04:51.944Z,99170.00
2023-03-15T06:08:00.684Z,99180.41
2023-03-15T06:11:03.559Z,99189.19
2023-03-15T06:14:07.749Z,99201.69
2023-03-15T06:17:16.505Z,99205.75
2023-03-15T06:20:21.070Z,99198.63
2023-03-15T06:23:24.331Z,99207.28
2023-03-15T06:26:29.246Z,99212.56
2023-03-15T06:30:02.479Z,99227.00
2023-03-15T06:33:06.105Z,99222.97
2023-03-15T06:36:09.370Z,99212.28
2023-03-15T06:39:13.433Z,99220.34
2023-03-15T06:42:16.598Z,99204.38
2023-03-15T06:45:21.361Z,99219.91
2023-03-15T06:48:25.312Z,99220.31
2023-03-15T06:51:28.194Z,99225.06
2023-03-15T06:54:31.921Z,99227.94
2023-03-15T06:57:35.000Z,99229.25
2023-03-15T07:00:39.380Z,99240.91
2023-03-15T07:03:42.427Z,99248.38
2023-03-15T07:06:45.038Z,99248.38
2023-03-15T07:09:47.703Z,99253.66
2023-03-15T07:12:50.468Z,99251.44
2023-03-15T07:15:54.460Z,99257.28
2023-03-15T07:18:59.437Z,99257.56
2023-03-15T07:22:01.965Z,99256.72
2023-03-15T07:25:07.508Z,99260.47
2023-03-15T07:28:10.412Z,99265.34
2023-03-15T07:31:13.526Z,99267.28
2023-03-15T07:34:16.242Z,99271.56
2023-03-15T07:37:18.892Z,99266.84
2023-03-15T07:40:21.609Z,99281.44
2023-03-15T07:43:24.752Z,99285.03
2023-03-15T07:46:37.308Z,99289.63
2023-03-15T07:49:40.085Z,99279.50
2023-03-15T07:52:43.634Z,99287.28
2023-03-15T07:55:48.405Z,99271.81
2023-03-15T07:58:51.114Z,99279.47
2023-03-15T08:01:54.383Z,99279.47
2023-03-15T08:04:57.061Z,99280.31
2023-03-15T08:08:00.474Z,99292.66
2023-03-15T08:11:05.531Z,99282.81
2023-03-15T08:14:08.413Z,99294.03
2023-03-15T08:17:13.221Z,99284.59
2023-03-15T08:20:19.610Z,99301.41
2023-03-15T08:23:22.614Z,99299.22
2023-03-15T08:26:25.436Z,99295.59
2023-03-15T08:29:28.867Z,99309.63
2023-03-15T08:32:32.302Z,99310.72
2023-03-15T08:35:35.408Z,99316.44
2023-03-15T08:38:38.244Z,99328.81
2023-03-15T08:41:41.815Z,99336.06
2023-03-15T08:44:44.378Z,99329.38
2023-03-15T08:47:46.980Z,99350.66
2023-03-15T08:50:51.317Z,99353.97
2023-03-15T08:53:54.054Z,99342.03
2023-03-15T08:56:56.721Z,99366.78
2023-03-15T09:00:01.375Z,99369.72
2023-03-15T09:03:04.475Z,99380.66
2023-03-15T09:06:07.770Z,99388.22
2023-03-15T09:09:10.565Z,99390.97
2023-03-15T09:12:13.233Z,99389.72
2023-03-15T09:15:16.286Z,99396.53
2023-03-15T09:18:19.452Z,99411.53
2023-03-15T09:21:22.250Z,99413.09
2023-03-15T09:24:24.846Z,99422.81
2023-03-15T09:27:30.483Z,99427.97
2023-03-15T09:30:37.132Z,99425.47
2023-03-15T09:33:39.749Z,99428.50
2023-03-15T09:36:42.412Z,99447.69
2023-03-15T09:39:45.143Z,99453.81
2023-03-15T09:42:59.776Z,99462.19
2023-03-15T09:46:23.983Z,99457.19
2023-03-15T09:49:54.076Z,99467.44
2023-03-15T09:53:06.848Z,99464.53
2023-03-15T09:56:54.282Z,99465.09
2023-03-15T09:59:58.939Z,99464.69
2023-03-15T10:03:07.070Z,99465.22
2023-03-15T10:06:18.753Z,99468.44
2023-03-15T10:09:24.314Z,99457.03
2023-03-15T10:12:41.482Z,99469.41
2023-03-15T10:16:31.946Z,99475.53
2023-03-15T10:19:50.144Z,99481.66
2023-03-15T10:23:08.118Z,99482.78
2023-03-15T10:26:15.528Z,99475.53
2023-03-15T10:29:21.111Z,99482.75
2023-03-15T10:32:30.267Z,99483.31
2023-03-15T10:35:33.245Z,99483.56
2023-03-15T10:38:36.235Z,99501.94
2023-03-15T10:41:45.054Z,99493.28
2023-03-15T10:44:47.754Z,99497.13
2023-03-15T10:47:59.758Z,99506.38
2023-03-15T10:51:30.474Z,99507.88
2023-03-15T10:54:35.321Z,99495.59
2023-03-15T10:57:41.723Z,99505.00
2023-03-15T11:01:00.545Z,99504.22
2023-03-15T11:04:16.167Z,99500.50
2023-03-15T11:07:19.176Z,99515.91
2023-03-15T11:10:27.475Z,99512.59
2023-03-15T11:13:32.508Z,99518.69
2023-03-15T11:16:35.868Z,99519.88
2023-03-15T11:19:42.559Z,99514.63
2023-03-15T11:22:45.369Z,99524.59
2023-03-15T11:25:48.189Z,99525.66
2023-03-15T11:28:59.852Z,99516.88
2023-03-15T11:32:24.173Z,99529.59
2023-03-15T11:35:33.644Z,99524.75
2023-03-15T11:38:44.102Z,99530.88
2023-03-15T11:42:00.356Z,99533.06
2023-03-15T11:45:16.712Z,99532.84
2023-03-15T11:48:42.639Z,99524.31
2023-03-15T11:51:45.557Z,99530.81
2023-03-15T11:54:48.564Z,99530.31
2023-03-15T11:57:52.222Z,99540.50
2023-03-15T12:01:26.492Z,99532.75
2023-03-15T12:04:34.815Z,99534.03
2023-03-15T12:07:56.375Z,99540.00
2023-03-15T12:11:00.039Z,99548.88
2023-03-15T12:14:02.980Z,99554.63
2023-03-15T12:17:23.862Z,99549.59
2023-03-15T12:20:43.944Z,99556.22
2023-03-15T12:23:58.269Z,99552.66
2023-03-15T12:27:02.679Z,99539.00
2023-03-15T12:30:06.890Z,99545.72
2023-03-15T12:33:17.040Z,99545.09
2023-03-15T12:36:32.078Z,99550.56
2023-03-15T12:39:39.096Z,99557.03
2023-03-15T12:42:42.129Z,99554.03
2023-03-15T12:45:45.805Z,99561.84
2023-03-15T12:49:14.754Z,99559.88
2023-03-15T12:52:17.384Z,99565.97
2023-03-15T12:55:20.264Z,99566.28
2023-03-15T12:58:31.970Z,99560.63
2023-03-15T13:01:34.957Z,99572.69
2023-03-15T13:04:38.716Z,99568.63
2023-03-15T13:08:08.739Z,99572.59
2023-03-15T13:11:46.529Z,99577.00
2023-03-15T13:14:58.592Z,99590.16
2023-03-15T13:18:17.940Z,99596.91
2023-03-15T13:21:26.008Z,99596.34
2023-03-15T13:24:43.381Z,99603.06
2023-03-15T13:28:11.836Z,99603.47
2023-03-15T13:31:23.168Z,99602.50
2023-03-15T13:34:28.892Z,99615.81
2023-03-15T13:37:31.945Z,99609.94
2023-03-15T13:40:35.567Z,99611.47
2023-03-15T13:43:39.741Z,99618.56
2023-03-15T13:46:42.436Z,99625.31
2023-03-15T13:49:45.132Z,99619.47
2023-03-15T13:52:49.114Z,99630.69
2023-03-15T13:55:53.623Z,99636.91
2023-03-15T13:58:57.478Z,99632.03
2023-03-15T14:02:02.980Z,99638.91
2023-03-15T14:05:12.121Z,99625.59
2023-03-15T14:08:45.696Z,99644.50
2023-03-15T14:12:16.111Z,99647.75
2023-03-15T14:15:23.844Z,99658.59
2023-03-15T14:18:35.949Z,99656.69
2023-03-15T14:21:47.920Z,99666.19
2023-03-15T14:24:52.267Z,99682.56
2023-03-15T14:27:55.176Z,99681.78
2023-03-15T14:31:02.365Z,99672.72
2023-03-15T14:34:33.641Z,99690.44
2023-03-15T14:37:36.811Z,99696.88
2023-03-15T14:40:41.866Z,99703.31
2023-03-15T14:43:44.777Z,99685.47
2023-03-15T14:46:48.356Z,99684.09
2023-03-15T14:49:51.107Z,99685.50
2023-03-15T14:52:54.450Z,99701.94
2023-03-15T14:55:57.144Z,99702.75
2023-03-15T14:59:00.880Z,99702.44
2023-03-15T15:02:05.463Z,99713.03
2023-03-15T15:05:16.853Z,99722.09
2023-03-15T15:08:24.514Z,99724.59
2023-03-15T15:11:27.889Z,99731.69
2023-03-15T15:14:31.717Z,99749.25
2023-03-15T15:17:34.469Z,99745.19
2023-03-15T15:20:38.337Z,99756.22
2023-03-15T15:23:57.355Z,99759.16
2023-03-15T15:27:02.191Z,99766.72
2023-03-15T15:30:05.976Z,99776.06
2023-03-15T15:33:13.936Z,99779.81
2023-03-15T15:36:25.633Z,99784.22
2023-03-15T15:39:30.104Z,99780.84
2023-03-15T15:42:32.885Z,99773.59
2023-03-15T15:45:35.730Z,99802.25
2023-03-15T15:48:40.592Z,99809.88
2023-03-15T15:51:49.892Z,99800.94
2023-03-15T15:54:53.644Z,99813.47
2023-03-15T15:57:57.303Z,99813.47
2023-03-15T16:01:00.509Z,99819.31
2023-03-15T16:04:03.853Z,99820.09
2023-03-15T16:07:09.240Z,99826.22
2023-03-15T16:10:23.481Z,99824.13
2023-03-15T16:13:26.646Z,99843.22
2023-03-15T16:16:29.405Z,99832.44
2023-03-15T16:19:32.287Z,99845.16
2023-03-15T16:22:38.296Z,99852.97
2023-03-15T16:25:42.254Z,99842.91
2023-03-15T16:28:48.145Z,99844.25
2023-03-15T16:31:52.121Z,99851.41
2023-03-15T16:34:58.552Z,99867.25
2023-03-15T16:38:02.239Z,99871.97
2023-03-15T16:41:06.932Z,99881.59
2023-03-15T16:44:13.558Z,99882.69
2023-03-15T16:47:19.148Z,99884.28
2023-03-15T16:50:26.380Z,99888.97
2023-03-15T16:53:32.782Z,99897.38
2023-03-15T16:56:37.018Z,99902.47
2023-03-15T16:59:40.881Z,99910.13
2023-03-15T17:02:49.082Z,99922.59
2023-03-15T17:05:52.749Z,99925.84
2023-03-15T17:09:10.950Z,99927.88
2023-03-15T17:12:26.624Z,99920.72
2023-03-15T17:15:32.671Z,99930.78
2023-03-15T17:18:36.460Z,99934.34
2023-03-15T17:21:43.347Z,99928.13
2023-03-15T17:24:49.068Z,99939.28
2023-03-15T17:27:54.235Z,99952.81
2023-03-15T17:31:20.299Z,99945.25
2023-03-15T17:34:26.909Z,99962.97
2023-03-15T17:37:35.357Z,99978.63
2023-03-15T17:40:39.830Z,99983.59
2023-03-15T17:43:44.938Z,99988.75
2023-03-15T17:46:50.372Z,100004.06
2023-03-15T17:49:54.097Z,100001.78
2023-03-15T17:53:08.205Z,100014.00
2023-03-15T17:56:16.513Z,100017.50
2023-03-15T17:59:19.806Z,100027.06
2023-03-15T18:02:25.005Z,100027.78
2023-03-15T18:05:30.200Z,100032.03
2023-03-15T18:08:33.326Z,100042.31
2023-03-15T18:11:40.767Z,100040.13
2023-03-15T18:14:44.775Z,100043.25
2023-03-15T18:17:49.674Z,100050.94
2023-03-15T18:20:54.120Z,100050.25
2023-03-15T18:23:58.934Z,100050.53
2023-03-15T18:27:03.903Z,100055.59
2023-03-15T18:30:08.288Z,100072.69
2023-03-15T18:33:13.037Z,100059.75
2023-03-15T18:36:18.601Z,100072.41
2023-03-15T18:39:25.665Z,100076.78
2023-03-15T18:42:30.588Z,100078.69
2023-03-15T18:45:36.867Z,100088.41
2023-03-15T18:48:43.194Z,100084.59
2023-03-15T18:51:48.112Z,100086.31
2023-03-15T18:54:55.226Z,100091.13
2023-03-15T18:58:02.063Z,100095.88
2023-03-15T19:01:06.726Z,100088.63
2023-03-15T19:04:13.611Z,100089.72
2023-03-15T19:07:18.160Z,100090.53
2023-03-15T19:10:23.917Z,100102.38
2023-03-15T19:13:28.490Z,100104.50
2023-03-15T19:16:33.404Z,100105.09
2023-03-15T19:19:43.933Z,100107.03
2023-03-15T19:22:47.644Z,100113.97
2023-03-15T19:25:52.988Z,100124.19
2023-03-15T19:28:59.279Z,100120.75
2023-03-15T19:32:04.794Z,100129.28
2023-03-15T19:35:09.098Z,100142.44
2023-03-15T19:38:13.723Z,100140.25
2023-03-15T19:41:18.503Z,100147.75
2023-03-15T19:44:25.728Z,100128.75
2023-03-15T19:47:31.203Z,100139.94
2023-03-15T19:50:35.146Z,100150.56
2023-03-15T19:53:39.348Z,100152.13
2023-03-15T19:56:46.299Z,100164.50
2023-03-15T19:59:50.620Z,100167.91
2023-03-15T20:02:56.043Z,100166.84
2023-03-15T20:06:09.232Z,100173.25
2023-03-15T20:09:13.595Z,100167.50
2023-03-15T20:12:17.921Z,100184.97
2023-03-15T20:15:27.540Z,100168.97
2023-03-15T20:18:36.169Z,100186.25
2023-03-15T20:21:40.574Z,100186.47
2023-03-15T20:24:46.535Z,100199.72
2023-03-15T20:27:50.674Z,100199.63
2023-03-15T20:30:54.806Z,100207.75
2023-03-15T20:33:58.904Z,100205.13
2023-03-15T20:37:03.431Z,100209.22
2023-03-15T20:40:15.342Z,100209.22
2023-03-15T20:43:19.085Z,100192.03
2023-03-15T20:46:23.251Z,100195.63
2023-03-15T20:49:29.282Z,100202.25
2023-03-15T20:52:36.012Z,100205.41
2023-03-15T20:55:40.122Z,100206.28
2023-03-15T20:58:54.239Z,100213.09
2023-03-15T21:01:58.084Z,100219.34
2023-03-15T21:05:04.367Z,100223.09
2023-03-15T21:08:08.142Z,100220.56
2023-03-15T21:11:11.937Z,100224.38
2023-03-15T21:14:15.300Z,100211.31
2023-03-15T21:17:18.733Z,100223.63
2023-03-15T21:20:22.219Z,100221.03
2023-03-15T21:23:34.653Z,100219.31
2023-03-15T21:26:39.358Z,100214.47
2023-03-15T21:29:42.814Z,100214.88
2023-03-15T21:32:46.383Z,100217.41
2023-03-15T21:35:51.769Z,100213.22
2023-03-15T21:38:55.467Z,100212.78
2023-03-15T21:41:58.721Z,100212.91
2023-03-15T21:45:02.153Z,100217.59
2023-03-15T21:48:05.390Z,100220.84
2023-03-15T21:51:09.189Z,100222.97
2023-03-15T21:54:14.014Z,100226.66
2023-03-15T21:57:16.929Z,100219.53
2023-03-15T22:00:22.032Z,100221.00
2023-03-15T22:03:25.374Z,100223.09
2023-03-15T22:06:29.525Z,100222.47
2023-03-15T22:09:32.196Z,100224.78
2023-03-15T22:12:36.441Z,100220.13
2023-03-15T22:15:39.063Z,100224.59
2023-03-15T22:18:41.667Z,100225.44
2023-03-15T22:21:44.910Z,100229.63
2023-03-15T22:24:47.670Z,100232.53
2023-03-15T22:27:51.010Z,100236.94
2023-03-15T22:30:53.842Z,100238.19
2023-03-15T22:33:56.506Z,100244.09
2023-03-15T22:36:59.035Z,100229.81
2023-03-15T22:40:04.687Z,100233.25
2023-03-15T22:43:08.720Z,100229.50
2023-03-15T22:46:12.476Z,100240.03
2023-03-15T22:49:15.097Z,100239.81
2023-03-15T22:52:18.051Z,100248.66
2023-03-15T22:55:20.813Z,100250.78
2023-03-15T22:58:24.815Z,100251.44
2023-03-15T23:01:27.686Z,100251.97
2023-03-15T23:04:31.102Z,100252.38
2023-03-15T23:07:33.724Z,100250.28
2023-03-15T23:10:36.369Z,100244.69
2023-03-15T23:13:38.993Z,100247.38
2023-03-15T23:16:42.707Z,100251.09
2023-03-15T23:19:45.319Z,100263.19
2023-03-15T23:22:50.379Z,100265.72
2023-03-15T23:25:54.086Z,100272.03
2023-03-15T23:28:56.611Z,100274.75
2023-03-15T23:32:00.008Z,100273.31
2023-03-15T23:35:04.556Z,100269.06
2023-03-15T23:38:08.837Z,100272.00
2023-03-15T23:41:12.546Z,100279.50
2023-03-15T23:44:16.291Z,100274.44
2023-03-15T23:47:22.371Z,100284.09
2023-03-15T23:50:26.432Z,100283.75
2023-03-15T23:53:29.773Z,100285.84
2023-03-15T23:56:32.397Z,100295.81
2023-03-15T23:59:36.295Z,100299.66
